sensor_id;sensor_type;location;lat;lon;timestamp;pressure;altitude;pressure_sealevel;temperature;humidity
8049;BME280;20935;42.660;23.342;2023-05-07T00:01:43;94973.06;;;20.98;48.78
8049;BME280;20935;42.660;23.342;2023-05-07T00:04:29;94977.03;;;20.97;48.73
8049;BME280;20935;42.660;23.342;2023-05-07T00:07:21;94977.47;;;20.96;49.17
8049;BME280;20935;42.660;23.342;2023-05-07T00:10:07;94979.44;;;20.95;49.07
8049;BME280;20935;42.660;23.342;2023-05-07T00:12:53;94978.66;;;20.95;48.67
8049;BME280;20935;42.660;23.342;2023-05-07T00:15:38;94984.88;;;20.95;48.97
8049;BME280;20935;42.660;23.342;2023-05-07T00:18:24;94975.94;;;20.95;49.02
8049;BME280;20935;42.660;23.342;2023-05-07T00:21:10;94973.97;;;20.95;48.64
8049;BME280;20935;42.660;23.342;2023-05-07T00:23:57;94962.31;;;20.95;48.91
8049;BME280;20935;42.660;23.342;2023-05-07T00:26:42;94968.09;;;20.97;48.82
8049;BME280;20935;42.660;23.342;2023-05-07T00:29:28;94965.81;;;20.95;48.89
8049;BME280;20935;42.660;23.342;2023-05-07T00:32:13;94963.09;;;20.95;48.79
8049;BME280;20935;42.660;23.342;2023-05-07T00:34:59;94959.16;;;20.96;48.90
8049;BME280;20935;42.660;23.342;2023-05-07T00:37:44;94963.84;;;20.96;48.79
8049;BME280;20935;42.660;23.342;2023-05-07T00:40:31;94966.56;;;20.96;49.17
8049;BME280;20935;42.660;23.342;2023-05-07T00:43:16;94971.25;;;20.95;49.00
8049;BME280;20935;42.660;23.342;2023-05-07T00:46:02;94965.06;;;20.95;49.01
8049;BME280;20935;42.660;23.342;2023-05-07T00:48:48;94972.47;;;20.94;49.00
8049;BME280;20935;42.660;23.342;2023-05-07T00:51:34;94975.19;;;20.94;48.85
8049;BME280;20935;42.660;23.342;2023-05-07T00:54:20;94977.16;;;20.94;48.79
8049;BME280;20935;42.660;23.342;2023-05-07T00:57:09;94975.66;;;20.93;48.98
8049;BME280;20935;42.660;23.342;2023-05-07T00:59:55;94975.66;;;20.93;48.90
8049;BME280;20935;42.660;23.342;2023-05-07T01:02:41;94979.56;;;20.92;49.04
8049;BME280;20935;42.660;23.342;2023-05-07T01:05:27;94984.28;;;20.91;49.03
8049;BME280;20935;42.660;23.342;2023-05-07T01:08:15;94986.22;;;20.91;49.06
8049;BME280;20935;42.660;23.342;2023-05-07T01:11:00;94980.03;;;20.90;48.99
8049;BME280;20935;42.660;23.342;2023-05-07T01:13:48;94985.47;;;20.90;48.96
8049;BME280;20935;42.660;23.342;2023-05-07T01:16:34;94984.75;;;20.90;48.85
8049;BME280;20935;42.660;23.342;2023-05-07T01:19:20;94978.53;;;20.89;48.85
8049;BME280;20935;42.660;23.342;2023-05-07T01:22:08;94975.81;;;20.89;48.89
8049;BME280;20935;42.660;23.342;2023-05-07T01:24:55;94975.81;;;20.89;48.89
8049;BME280;20935;42.660;23.342;2023-05-07T01:27:41;94968.84;;;20.88;48.91
8049;BME280;20935;42.660;23.342;2023-05-07T01:30:27;94976.25;;;20.88;48.98
8049;BME280;20935;42.660;23.342;2023-05-07T01:33:14;94976.25;;;20.88;48.78
8049;BME280;20935;42.660;23.342;2023-05-07T01:36:01;94970.03;;;20.87;49.10
8049;BME280;20935;42.660;23.342;2023-05-07T01:38:50;94961.88;;;20.87;48.83
8049;BME280;20935;42.660;23.342;2023-05-07T01:41:37;94961.88;;;20.87;48.98
8049;BME280;20935;42.660;23.342;2023-05-07T01:44:22;94959.16;;;20.87;48.60
8049;BME280;20935;42.660;23.342;2023-05-07T01:47:08;94958.69;;;20.80;49.26
8049;BME280;20935;42.660;23.342;2023-05-07T01:49:54;94955.22;;;20.79;49.21
8049;BME280;20935;42.660;23.342;2023-05-07T01:52:40;94950.97;;;20.78;49.21
8049;BME280;20935;42.660;23.342;2023-05-07T01:55:25;94945.25;;;20.76;49.07
8049;BME280;20935;42.660;23.342;2023-05-07T01:58:13;94940.84;;;20.79;48.98
8049;BME280;20935;42.660;23.342;2023-05-07T02:00:58;94945.09;;;20.80;48.85
8049;BME280;20935;42.660;23.342;2023-05-07T02:03:43;94937.69;;;20.80;49.11
8049;BME280;20935;42.660;23.342;2023-05-07T02:06:29;94940.41;;;20.80;48.93
8049;BME280;20935;42.660;23.342;2023-05-07T02:09:14;94933.75;;;20.81;49.06
8049;BME280;20935;42.660;23.342;2023-05-07T02:12:00;94930.28;;;20.81;49.03
8049;BME280;20935;42.660;23.342;2023-05-07T02:14:47;94927.56;;;20.81;49.12
8049;BME280;20935;42.660;23.342;2023-05-07T02:17:32;94917.41;;;20.81;49.06
8049;BME280;20935;42.660;23.342;2023-05-07T02:20:17;94923.63;;;20.82;48.96
8049;BME280;20935;42.660;23.342;2023-05-07T02:23:03;94915.47;;;20.82;48.91
8049;BME280;20935;42.660;23.342;2023-05-07T02:25:48;94924.81;;;20.81;48.96
8049;BME280;20935;42.660;23.342;2023-05-07T02:28:33;94922.88;;;20.81;49.03
8049;BME280;20935;42.660;23.342;2023-05-07T02:31:21;94917.41;;;20.81;48.96
8049;BME280;20935;42.660;23.342;2023-05-07T02:34:06;94919.38;;;20.81;48.72
8049;BME280;20935;42.660;23.342;2023-05-07T02:36:52;94922.88;;;20.81;48.79
8049;BME280;20935;42.660;23.342;2023-05-07T02:39:37;94918.63;;;20.80;48.93
8049;BME280;20935;42.660;23.342;2023-05-07T02:42:23;94926.78;;;20.80;49.02
8049;BME280;20935;42.660;23.342;2023-05-07T02:45:09;94925.28;;;20.79;48.99
8049;BME280;20935;42.660;23.342;2023-05-07T02:47:56;94917.09;;;20.79;48.88
8049;BME280;20935;42.660;23.342;2023-05-07T02:50:42;94928.00;;;20.79;48.89
8049;BME280;20935;42.660;23.342;2023-05-07T02:53:27;94926.03;;;20.80;48.85
8049;BME280;20935;42.660;23.342;2023-05-07T02:56:13;94936.16;;;20.79;48.85
8049;BME280;20935;42.660;23.342;2023-05-07T02:58:58;94940.09;;;20.78;48.97
8049;BME280;20935;42.660;23.342;2023-05-07T03:01:44;94938.13;;;20.79;48.98
8049;BME280;20935;42.660;23.342;2023-05-07T03:04:31;94941.59;;;20.79;48.66
8049;BME280;20935;42.660;23.342;2023-05-07T03:07:16;94945.09;;;20.80;49.01
8049;BME280;20935;42.660;23.342;2023-05-07T03:10:02;94950.97;;;20.78;48.99
8049;BME280;20935;42.660;23.342;2023-05-07T03:12:47;94947.53;;;20.78;49.03
8049;BME280;20935;42.660;23.342;2023-05-07T03:15:33;94949.50;;;20.77;48.99
8049;BME280;20935;42.660;23.342;2023-05-07T03:18:18;94954.94;;;20.77;48.98
8049;BME280;20935;42.660;23.342;2023-05-07T03:21:05;94957.66;;;20.77;48.78
8049;BME280;20935;42.660;23.342;2023-05-07T03:23:50;94958.84;;;20.76;48.90
8049;BME280;20935;42.660;23.342;2023-05-07T03:26:35;94964.31;;;20.76;48.80
8049;BME280;20935;42.660;23.342;2023-05-07T03:29:21;94958.41;;;20.78;48.72
8049;BME280;20935;42.660;23.342;2023-05-07T03:32:06;94957.66;;;20.77;48.87
8049;BME280;20935;42.660;23.342;2023-05-07T03:34:52;94956.41;;;20.78;48.96
8049;BME280;20935;42.660;23.342;2023-05-07T03:37:39;94958.69;;;20.80;48.58
8049;BME280;20935;42.660;23.342;2023-05-07T03:40:24;94959.91;;;20.79;48.94
8049;BME280;20935;42.660;23.342;2023-05-07T03:43:10;94963.38;;;20.79;48.62
8049;BME280;20935;42.660;23.342;2023-05-07T03:45:55;94977.75;;;20.80;48.69
8049;BME280;20935;42.660;23.342;2023-05-07T03:48:41;94968.84;;;20.79;48.62
8049;BME280;20935;42.660;23.342;2023-05-07T03:51:26;94970.78;;;20.79;48.81
8049;BME280;20935;42.660;23.342;2023-05-07T03:54:13;94969.59;;;20.80;48.86
8049;BME280;20935;42.660;23.342;2023-05-07T03:56:58;94976.56;;;20.81;48.69
8049;BME280;20935;42.660;23.342;2023-05-07T03:59:44;94982.00;;;20.81;48.67
8049;BME280;20935;42.660;23.342;2023-05-07T04:02:30;94984.72;;;20.81;48.62
8049;BME280;20935;42.660;23.342;2023-05-07T04:05:15;94982.00;;;20.81;48.58
8049;BME280;20935;42.660;23.342;2023-05-07T04:08:01;94996.06;;;20.79;48.58
8049;BME280;20935;42.660;23.342;2023-05-07T04:10:47;94997.59;;;20.80;48.59
8049;BME280;20935;42.660;23.342;2023-05-07T04:13:33;95003.78;;;20.81;48.70
8049;BME280;20935;42.660;23.342;2023-05-07T04:16:18;94998.34;;;20.81;48.64
8049;BME280;20935;42.660;23.342;2023-05-07T04:19:03;95010.00;;;20.81;48.82
8049;BME280;20935;42.660;23.342;2023-05-07T04:21:49;95013.91;;;20.80;48.87
8049;BME280;20935;42.660;23.342;2023-05-07T04:24:35;95016.66;;;20.80;48.56
8049;BME280;20935;42.660;23.342;2023-05-07T04:27:22;95020.56;;;20.79;48.60
8049;BME280;20935;42.660;23.342;2023-05-07T04:30:08;95026.00;;;20.79;48.70
8049;BME280;20935;42.660;23.342;2023-05-07T04:32:53;95023.59;;;20.81;48.70
8049;BME280;20935;42.660;23.342;2023-05-07T04:35:39;95025.56;;;20.81;48.67
8049;BME280;20935;42.660;23.342;2023-05-07T04:38:24;95026.34;;;20.81;48.54
8049;BME280;20935;42.660;23.342;2023-05-07T04:41:09;95038.72;;;20.82;48.71
8049;BME280;20935;42.660;23.342;2023-05-07T04:43:56;95037.50;;;20.83;48.62
8049;BME280;20935;42.660;23.342;2023-05-07T04:46:42;95040.25;;;20.83;48.53
8049;BME280;20935;42.660;23.342;2023-05-07T04:49:28;95030.88;;;20.84;48.66
8049;BME280;20935;42.660;23.342;2023-05-07T04:52:13;95040.56;;;20.85;48.42
8049;BME280;20935;42.660;23.342;2023-05-07T04:54:59;95031.91;;;20.87;48.40
8049;BME280;20935;42.660;23.342;2023-05-07T04:57:44;95038.59;;;20.86;48.52
8049;BME280;20935;42.660;23.342;2023-05-07T05:00:31;95031.63;;;20.85;48.59
8049;BME280;20935;42.660;23.342;2023-05-07T05:03:17;95035.88;;;20.86;48.47
8049;BME280;20935;42.660;23.342;2023-05-07T05:06:02;95039.31;;;20.86;48.48
8049;BME280;20935;42.660;23.342;2023-05-07T05:08:48;95028.91;;;20.85;48.63
8049;BME280;20935;42.660;23.342;2023-05-07T05:11:33;95025.72;;;20.86;48.42
8049;BME280;20935;42.660;23.342;2023-05-07T05:14:19;95023.31;;;20.88;48.49
8049;BME280;20935;42.660;23.342;2023-05-07T05:17:06;95023.59;;;20.90;48.36
8049;BME280;20935;42.660;23.342;2023-05-07T05:19:51;95027.41;;;20.93;48.47
8049;BME280;20935;42.660;23.342;2023-05-07T05:22:37;95022.72;;;20.93;48.52
8049;BME280;20935;42.660;23.342;2023-05-07T05:25:22;95022.72;;;20.93;48.33
8049;BME280;20935;42.660;23.342;2023-05-07T05:28:08;95024.97;;;20.95;48.36
8049;BME280;20935;42.660;23.342;2023-05-07T05:30:53;95033.91;;;20.95;48.50
8049;BME280;20935;42.660;23.342;2023-05-07T05:33:40;95026.03;;;20.97;48.41
8049;BME280;20935;42.660;23.342;2023-05-07T05:36:25;95030.25;;;20.98;48.38
8049;BME280;20935;42.660;23.342;2023-05-07T05:39:11;95034.50;;;20.99;48.45
8049;BME280;20935;42.660;23.342;2023-05-07T05:41:56;95034.50;;;20.99;48.24
8049;BME280;20935;42.660;23.342;2023-05-07T05:44:42;95034.50;;;20.99;48.42
8049;BME280;20935;42.660;23.342;2023-05-07T05:47:27;95035.25;;;21.00;48.38
8049;BME280;20935;42.660;23.342;2023-05-07T05:50:14;95039.19;;;20.99;48.19
8049;BME280;20935;42.660;23.342;2023-05-07T05:53:00;95034.50;;;20.99;48.04
8049;BME280;20935;42.660;23.342;2023-05-07T05:55:45;95024.38;;;21.00;48.42
8049;BME280;20935;42.660;23.342;2023-05-07T05:58:31;95030.13;;;21.02;48.21
8049;BME280;20935;42.660;23.342;2023-05-07T06:01:17;95029.38;;;21.01;48.28
8049;BME280;20935;42.660;23.342;2023-05-07T06:04:03;95032.09;;;21.01;48.10
8049;BME280;20935;42.660;23.342;2023-05-07T06:06:50;95035.59;;;21.02;48.35
8049;BME280;20935;42.660;23.342;2023-05-07T06:09:35;95039.03;;;21.02;48.22
8049;BME280;20935;42.660;23.342;2023-05-07T06:12:21;95037.06;;;21.03;48.39
8049;BME280;20935;42.660;23.342;2023-05-07T06:15:07;95039.03;;;21.02;48.09
8049;BME280;20935;42.660;23.342;2023-05-07T06:17:52;95035.13;;;21.03;48.11
8049;BME280;20935;42.660;23.342;2023-05-07T06:20:39;95033.91;;;21.04;48.20
8049;BME280;20935;42.660;23.342;2023-05-07T06:23:26;95025.72;;;21.04;48.33
8049;BME280;20935;42.660;23.342;2023-05-07T06:26:12;95025.25;;;21.06;48.17
8049;BME280;20935;42.660;23.342;2023-05-07T06:28:57;95023.63;;;21.08;48.32
8049;BME280;20935;42.660;23.342;2023-05-07T06:31:43;95022.09;;;21.07;48.26
8049;BME280;20935;42.660;23.342;2023-05-07T06:34:28;95017.41;;;21.08;48.06
8049;BME280;20935;42.660;23.342;2023-05-07T06:37:13;95013.16;;;21.07;48.21
8049;BME280;20935;42.660;23.342;2023-05-07T06:40:00;95022.84;;;21.08;48.32
8049;BME280;20935;42.660;23.342;2023-05-07T06:42:46;95008.78;;;21.09;48.08
8049;BME280;20935;42.660;23.342;2023-05-07T06:45:32;95006.81;;;21.10;48.32
8049;BME280;20935;42.660;23.342;2023-05-07T06:48:17;95010.28;;;21.10;48.04
8049;BME280;20935;42.660;23.342;2023-05-07T06:51:03;95002.59;;;21.09;48.38
8049;BME280;20935;42.660;23.342;2023-05-07T06:53:48;95000.63;;;21.09;48.25
8049;BME280;20935;42.660;23.342;2023-05-07T06:56:35;94993.94;;;21.10;48.23
8049;BME280;20935;42.660;23.342;2023-05-07T06:59:20;94995.50;;;21.12;48.14
8049;BME280;20935;42.660;23.342;2023-05-07T07:02:05;95000.94;;;21.12;48.03
8049;BME280;20935;42.660;23.342;2023-05-07T07:04:52;94992.31;;;21.13;48.36
8049;BME280;20935;42.660;23.342;2023-05-07T07:07:38;94999.72;;;21.13;47.90
8049;BME280;20935;42.660;23.342;2023-05-07T07:10:23;94998.53;;;21.14;48.25
8049;BME280;20935;42.660;23.342;2023-05-07T07:13:10;95000.78;;;21.15;48.16
8049;BME280;20935;42.660;23.342;2023-05-07T07:15:56;94990.19;;;21.17;48.12
8049;BME280;20935;42.660;23.342;2023-05-07T07:18:41;94996.41;;;21.18;48.06
8049;BME280;20935;42.660;23.342;2023-05-07T07:21:27;94995.19;;;21.19;48.05
8049;BME280;20935;42.660;23.342;2023-05-07T07:24:13;94987.31;;;21.21;48.15
8049;BME280;20935;42.660;23.342;2023-05-07T07:27:02;94987.31;;;21.21;48.17
8049;BME280;20935;42.660;23.342;2023-05-07T07:29:49;94984.59;;;21.21;47.88
8049;BME280;20935;42.660;23.342;2023-05-07T07:32:35;94982.16;;;21.23;47.79
8049;BME280;20935;42.660;23.342;2023-05-07T07:35:20;94991.84;;;21.24;48.09
8049;BME280;20935;42.660;23.342;2023-05-07T07:38:06;94985.19;;;21.25;48.19
8049;BME280;20935;42.660;23.342;2023-05-07T07:40:52;94988.69;;;21.25;48.12
8049;BME280;20935;42.660;23.342;2023-05-07T07:43:37;94992.59;;;21.24;47.87
8049;BME280;20935;42.660;23.342;2023-05-07T07:46:24;94988.19;;;21.27;47.87
8049;BME280;20935;42.660;23.342;2023-05-07T07:49:10;94997.91;;;21.28;47.99
8049;BME280;20935;42.660;23.342;2023-05-07T07:51:56;94994.41;;;21.27;47.88
8049;BME280;20935;42.660;23.342;2023-05-07T07:54:44;94993.38;;;21.25;48.08
8049;BME280;20935;42.660;23.342;2023-05-07T07:57:29;95001.84;;;21.27;48.09
8049;BME280;20935;42.660;23.342;2023-05-07T08:00:16;95001.06;;;21.26;48.04
8049;BME280;20935;42.660;23.342;2023-05-07T08:03:03;94997.91;;;21.28;48.17
8049;BME280;20935;42.660;23.342;2023-05-07T08:05:49;94992.44;;;21.28;47.91
8049;BME280;20935;42.660;23.342;2023-05-07T08:08:35;94992.00;;;21.29;47.94
8049;BME280;20935;42.660;23.342;2023-05-07T08:11:20;94994.25;;;21.31;48.19
8049;BME280;20935;42.660;23.342;2023-05-07T08:14:06;94986.84;;;21.31;47.93
8049;BME280;20935;42.660;23.342;2023-05-07T08:16:52;94986.84;;;21.31;48.09
8049;BME280;20935;42.660;23.342;2023-05-07T08:19:38;94996.53;;;21.32;47.99
8049;BME280;20935;42.660;23.342;2023-05-07T08:22:24;94978.22;;;21.33;47.83
8049;BME280;20935;42.660;23.342;2023-05-07T08:25:09;94982.47;;;21.34;47.83
8049;BME280;20935;42.660;23.342;2023-05-07T08:27:54;94986.69;;;21.35;47.71
8049;BME280;20935;42.660;23.342;2023-05-07T08:30:40;94981.22;;;21.35;47.96
8049;BME280;20935;42.660;23.342;2023-05-07T08:33:25;94974.56;;;21.36;47.78
8049;BME280;20935;42.660;23.342;2023-05-07T08:36:12;94977.59;;;21.38;48.00
8049;BME280;20935;42.660;23.342;2023-05-07T08:38:57;94978.34;;;21.38;47.73
8049;BME280;20935;42.660;23.342;2023-05-07T08:41:44;94979.09;;;21.39;47.94
8049;BME280;20935;42.660;23.342;2023-05-07T08:44:33;94976.69;;;21.41;47.84
8049;BME280;20935;42.660;23.342;2023-05-07T08:47:19;94970.47;;;21.40;48.00
8049;BME280;20935;42.660;23.342;2023-05-07T08:50:06;94972.72;;;21.42;47.95
8049;BME280;20935;42.660;23.342;2023-05-07T08:52:53;94967.59;;;21.44;47.72
8049;BME280;20935;42.660;23.342;2023-05-07T08:55:40;94961.38;;;21.43;47.98
8049;BME280;20935;42.660;23.342;2023-05-07T08:58:25;94963.66;;;21.45;47.77
8049;BME280;20935;42.660;23.342;2023-05-07T09:01:13;94963.66;;;21.45;47.71
8049;BME280;20935;42.660;23.342;2023-05-07T09:03:59;94955.78;;;21.47;47.60
8049;BME280;20935;42.660;23.342;2023-05-07T09:06:45;94955.78;;;21.47;47.75
8049;BME280;20935;42.660;23.342;2023-05-07T09:09:33;94945.63;;;21.47;47.79
8049;BME280;20935;42.660;23.342;2023-05-07T09:12:18;94958.81;;;21.49;47.94
8049;BME280;20935;42.660;23.342;2023-05-07T09:15:05;94947.91;;;21.49;47.79
8049;BME280;20935;42.660;23.342;2023-05-07T09:17:51;94944.69;;;21.50;47.76
8049;BME280;20935;42.660;23.342;2023-05-07T09:20:37;94940.75;;;21.51;47.67
8049;BME280;20935;42.660;23.342;2023-05-07T09:23:22;94941.53;;;21.52;48.02
8049;BME280;20935;42.660;23.342;2023-05-07T09:26:09;94945.00;;;21.52;47.66
8049;BME280;20935;42.660;23.342;2023-05-07T09:28:56;94937.59;;;21.53;47.92
8049;BME280;20935;42.660;23.342;2023-05-07T09:31:41;94932.41;;;21.55;47.73
8049;BME280;20935;42.660;23.342;2023-05-07T09:34:26;94927.28;;;21.57;47.71
8049;BME280;20935;42.660;23.342;2023-05-07T09:37:12;94927.28;;;21.57;48.01
8049;BME280;20935;42.660;23.342;2023-05-07T09:39:58;94926.03;;;21.58;47.81
8049;BME280;20935;42.660;23.342;2023-05-07T09:42:45;94928.31;;;21.60;47.74
8049;BME280;20935;42.660;23.342;2023-05-07T09:45:31;94926.34;;;21.60;47.91
8049;BME280;20935;42.660;23.342;2023-05-07T09:48:18;94920.91;;;21.60;47.74
8049;BME280;20935;42.660;23.342;2023-05-07T09:51:09;94913.00;;;21.62;47.91
8049;BME280;20935;42.660;23.342;2023-05-07T09:53:57;94915.00;;;21.62;47.83
8049;BME280;20935;42.660;23.342;2023-05-07T09:56:44;94911.03;;;21.63;47.85
8049;BME280;20935;42.660;23.342;2023-05-07T09:59:32;94912.28;;;21.62;47.92
8049;BME280;20935;42.660;23.342;2023-05-07T10:02:19;94915.00;;;21.62;47.91
8049;BME280;20935;42.660;23.342;2023-05-07T10:05:05;94909.06;;;21.63;47.59
8049;BME280;20935;42.660;23.342;2023-05-07T10:07:52;94909.06;;;21.63;47.92
8049;BME280;20935;42.660;23.342;2023-05-07T10:10:38;94908.03;;;21.61;47.70
8049;BME280;20935;42.660;23.342;2023-05-07T10:13:24;94913.75;;;21.63;47.56
8049;BME280;20935;42.660;23.342;2023-05-07T10:16:11;94902.09;;;21.62;47.59
8049;BME280;20935;42.660;23.342;2023-05-07T10:18:57;94900.03;;;21.57;47.71
8049;BME280;20935;42.660;23.342;2023-05-07T10:21:47;94902.28;;;21.59;48.07
8049;BME280;20935;42.660;23.342;2023-05-07T10:24:34;94893.63;;;21.60;47.64
8049;BME280;20935;42.660;23.342;2023-05-07T10:27:21;94899.84;;;21.61;47.63
8049;BME280;20935;42.660;23.342;2023-05-07T10:30:14;94888.00;;;21.64;47.83
8049;BME280;20935;42.660;23.342;2023-05-07T10:33:05;94879.66;;;21.67;47.91
8049;BME280;20935;42.660;23.342;2023-05-07T10:35:57;94874.53;;;21.69;47.70
8049;BME280;20935;42.660;23.342;2023-05-07T10:38:44;94877.53;;;21.71;47.51
8049;BME280;20935;42.660;23.342;2023-05-07T10:41:30;94870.88;;;21.72;47.87
8049;BME280;20935;42.660;23.342;2023-05-07T10:44:25;94864.19;;;21.73;47.90
8049;BME280;20935;42.660;23.342;2023-05-07T10:47:12;94878.41;;;21.77;47.85
8049;BME280;20935;42.660;23.342;2023-05-07T10:50:21;94879.91;;;21.78;47.69
8049;BME280;20935;42.660;23.342;2023-05-07T10:53:24;94874.75;;;21.80;47.45
8049;BME280;20935;42.660;23.342;2023-05-07T10:56:26;94868.81;;;21.82;47.73
8049;BME280;20935;42.660;23.342;2023-05-07T10:59:37;94862.16;;;21.83;47.66
8049;BME280;20935;42.660;23.342;2023-05-07T11:05:47;94867.94;;;21.85;47.42
8049;BME280;20935;42.660;23.342;2023-05-07T11:08:54;94869.72;;;21.88;47.40
8049;BME280;20935;42.660;23.342;2023-05-07T11:11:50;94863.81;;;21.89;47.39
8049;BME280;20935;42.660;23.342;2023-05-07T11:14:46;94857.13;;;21.90;47.39
8049;BME280;20935;42.660;23.342;2023-05-07T11:17:31;94857.88;;;21.91;47.34
8049;BME280;20935;42.660;23.342;2023-05-07T11:20:18;94862.91;;;21.92;47.33
8049;BME280;20935;42.660;23.342;2023-05-07T11:23:05;94850.03;;;21.93;47.64
8049;BME280;20935;42.660;23.342;2023-05-07T11:28:43;94848.34;;;21.95;47.79
8049;BME280;20935;42.660;23.342;2023-05-07T11:31:29;94838.94;;;21.96;47.28
8049;BME280;20935;42.660;23.342;2023-05-07T11:34:15;94848.63;;;21.97;47.45
8049;BME280;20935;42.660;23.342;2023-05-07T11:37:05;94845.91;;;21.97;47.45
8049;BME280;20935;42.660;23.342;2023-05-07T11:40:02;94836.50;;;21.98;47.70
8049;BME280;20935;42.660;23.342;2023-05-07T11:42:48;94842.69;;;21.99;47.18
8049;BME280;20935;42.660;23.342;2023-05-07T11:45:33;94836.03;;;22.00;47.63
8049;BME280;20935;42.660;23.342;2023-05-07T11:48:21;94838.47;;;21.98;47.68
8049;BME280;20935;42.660;23.342;2023-05-07T11:51:07;94838.00;;;21.99;47.44
8049;BME280;20935;42.660;23.342;2023-05-07T11:53:53;94838.00;;;21.99;47.41
8049;BME280;20935;42.660;23.342;2023-05-07T11:56:40;94841.75;;;22.02;47.59
8049;BME280;20935;42.660;23.342;2023-05-07T11:59:25;94841.75;;;22.02;47.28
8049;BME280;20935;42.660;23.342;2023-05-07T12:02:13;94833.88;;;22.04;47.20
8049;BME280;20935;42.660;23.342;2023-05-07T12:05:00;94827.66;;;22.04;47.47
8049;BME280;20935;42.660;23.342;2023-05-07T12:07:46;94827.22;;;22.05;47.63
8049;BME280;20935;42.660;23.342;2023-05-07T12:10:31;94814.31;;;22.06;47.33
8049;BME280;20935;42.660;23.342;2023-05-07T12:13:20;94818.56;;;22.07;47.66
8049;BME280;20935;42.660;23.342;2023-05-07T12:16:06;94805.66;;;22.07;47.27
8049;BME280;20935;42.660;23.342;2023-05-07T12:18:53;94812.16;;;22.10;47.50
8049;BME280;20935;42.660;23.342;2023-05-07T12:21:39;94816.88;;;22.09;47.62
8049;BME280;20935;42.660;23.342;2023-05-07T12:24:25;94809.44;;;22.10;47.42
8049;BME280;20935;42.660;23.342;2023-05-07T12:27:10;94804.91;;;22.07;47.55
8049;BME280;20935;42.660;23.342;2023-05-07T12:29:57;94795.31;;;22.11;47.59
8049;BME280;20935;42.660;23.342;2023-05-07T12:32:45;94793.81;;;22.10;47.69
8049;BME280;20935;42.660;23.342;2023-05-07T12:35:31;94788.66;;;22.12;47.49
8049;BME280;20935;42.660;23.342;2023-05-07T12:38:17;94798.34;;;22.13;47.61
8049;BME280;20935;42.660;23.342;2023-05-07T12:41:03;94788.94;;;22.14;47.58
8049;BME280;20935;42.660;23.342;2023-05-07T12:43:49;94779.53;;;22.15;47.57
8049;BME280;20935;42.660;23.342;2023-05-07T12:46:39;94773.63;;;22.17;47.67
8049;BME280;20935;42.660;23.342;2023-05-07T12:49:25;94773.13;;;22.18;47.56
8049;BME280;20935;42.660;23.342;2023-05-07T12:52:11;94775.59;;;22.16;47.63
8049;BME280;20935;42.660;23.342;2023-05-07T12:54:56;94761.47;;;22.18;47.71
8049;BME280;20935;42.660;23.342;2023-05-07T12:57:43;94769.94;;;22.20;47.48
8049;BME280;20935;42.660;23.342;2023-05-07T13:00:33;94757.81;;;22.21;47.16
8049;BME280;20935;42.660;23.342;2023-05-07T13:03:25;94748.38;;;22.22;47.44
8049;BME280;20935;42.660;23.342;2023-05-07T13:06:10;94751.41;;;22.24;47.11
8049;BME280;20935;42.660;23.342;2023-05-07T13:08:56;94758.84;;;22.23;47.21
8049;BME280;20935;42.660;23.342;2023-05-07T13:11:42;94752.94;;;22.25;47.47
8049;BME280;20935;42.660;23.342;2023-05-07T13:14:27;94740.03;;;22.25;47.69
8049;BME280;20935;42.660;23.342;2023-05-07T13:17:13;94745.00;;;22.27;47.53
8049;BME280;20935;42.660;23.342;2023-05-07T13:20:00;94744.56;;;22.28;47.24
8049;BME280;20935;42.660;23.342;2023-05-07T13:22:45;94739.84;;;22.29;47.26
8049;BME280;20935;42.660;23.342;2023-05-07T13:25:31;94741.34;;;22.30;47.47
8049;BME280;20935;42.660;23.342;2023-05-07T13:28:16;94728.00;;;22.32;47.15
8049;BME280;20935;42.660;23.342;2023-05-07T13:31:02;94734.66;;;22.31;47.45
8049;BME280;20935;42.660;23.342;2023-05-07T13:33:47;94738.91;;;22.32;47.23
8049;BME280;20935;42.660;23.342;2023-05-07T13:36:34;94742.84;;;22.31;47.60
8049;BME280;20935;42.660;23.342;2023-05-07T13:39:21;94740.13;;;22.31;47.38
8049;BME280;20935;42.660;23.342;2023-05-07T13:42:06;94737.22;;;22.34;47.09
8049;BME280;20935;42.660;23.342;2023-05-07T13:44:52;94739.47;;;22.36;47.26
8049;BME280;20935;42.660;23.342;2023-05-07T13:47:37;94741.72;;;22.37;47.19
8049;BME280;20935;42.660;23.342;2023-05-07T13:50:23;94736.56;;;22.39;47.13
8049;BME280;20935;42.660;23.342;2023-05-07T13:53:09;94738.06;;;22.40;47.32
8049;BME280;20935;42.660;23.342;2023-05-07T13:55:55;94736.84;;;22.41;47.48
8049;BME280;20935;42.660;23.342;2023-05-07T13:58:40;94740.50;;;22.38;47.52
8049;BME280;20935;42.660;23.342;2023-05-07T14:01:27;94741.00;;;22.37;47.55
8049;BME280;20935;42.660;23.342;2023-05-07T14:04:12;94742.22;;;22.36;47.31
8049;BME280;20935;42.660;23.342;2023-05-07T14:06:58;94730.81;;;22.37;47.61
8049;BME280;20935;42.660;23.342;2023-05-07T14:09:45;94741.72;;;22.37;47.58
8049;BME280;20935;42.660;23.342;2023-05-07T14:12:31;94742.22;;;22.36;47.25
8049;BME280;20935;42.660;23.342;2023-05-07T14:15:16;94751.16;;;22.36;47.66
8049;BME280;20935;42.660;23.342;2023-05-07T14:18:02;94745.22;;;22.38;47.39
8049;BME280;20935;42.660;23.342;2023-05-07T14:20:47;94746.25;;;22.40;47.12
8049;BME280;20935;42.660;23.342;2023-05-07T14:23:33;94750.78;;;22.43;47.58
8049;BME280;20935;42.660;23.342;2023-05-07T14:26:20;94737.41;;;22.45;47.56
8049;BME280;20935;42.660;23.342;2023-05-07T14:29:05;94734.97;;;22.47;47.46
8049;BME280;20935;42.660;23.342;2023-05-07T14:31:50;94732.50;;;22.49;47.08
8049;BME280;20935;42.660;23.342;2023-05-07T14:34:36;94728.75;;;22.47;47.42
8049;BME280;20935;42.660;23.342;2023-05-07T14:37:21;94725.75;;;22.45;47.60
8049;BME280;20935;42.660;23.342;2023-05-07T14:40:08;94728.94;;;22.43;47.29
8049;BME280;20935;42.660;23.342;2023-05-07T14:42:55;94734.84;;;22.42;47.44
8049;BME280;20935;42.660;23.342;2023-05-07T14:45:41;94736.09;;;22.41;47.59
8049;BME280;20935;42.660;23.342;2023-05-07T14:48:26;94729.41;;;22.42;47.58